createdAt,value
2019-05-20T00:01:28.365Z,33.4
2019-05-20T00:11:28.518Z,21.8
2019-05-20T00:21:25.895Z,30.8
2019-05-20T00:31:32.495Z,20.4
2019-05-20T00:41:26.151Z,20.9
2019-05-20T00:51:26.853Z,21.9
2019-05-20T01:01:25.552Z,20.8
2019-05-20T01:11:26.659Z,18.6
2019-05-20T01:21:27.079Z,18.1
2019-05-20T01:31:27.074Z,16.0
2019-05-20T01:41:28.318Z,12.9
2019-05-20T01:51:27.174Z,18.0
2019-05-20T02:01:27.941Z,14.4
2019-05-20T02:11:33.265Z,14.7
2019-05-20T02:21:27.651Z,14.1
2019-05-20T02:31:27.168Z,15.3
2019-05-20T02:41:26.935Z,14.7
2019-05-20T02:51:27.753Z,15.3
2019-05-20T03:01:25.374Z,18.6
2019-05-20T03:11:26.877Z,22.5
2019-05-20T03:21:26.458Z,16.3
2019-05-20T03:31:27.397Z,14.1
2019-05-20T03:41:28.751Z,15.7
2019-05-20T03:51:25.339Z,19.2
2019-05-20T04:01:27.098Z,19.8
2019-05-20T04:11:31.157Z,28.3
2019-05-20T04:21:26.981Z,20.3
2019-05-20T04:31:25.365Z,30.8
2019-05-20T04:41:26.348Z,27.2
2019-05-20T04:51:28.181Z,21.4
2019-05-20T05:01:26.066Z,27.1
2019-05-20T05:11:27.275Z,37.8
2019-05-20T05:21:26.459Z,31.2
2019-05-20T05:31:32.150Z,32.7
2019-05-20T05:41:28.811Z,29.2
2019-05-20T05:51:27.052Z,29.1
2019-05-20T06:01:27.549Z,24.2
2019-05-20T06:11:27.281Z,20.2
2019-05-20T06:21:26.066Z,15.0
2019-05-20T06:31:26.299Z,14.2
2019-05-20T06:41:29.028Z,13.3
2019-05-20T06:51:25.715Z,8.5
2019-05-20T07:01:25.914Z,12.2
2019-05-20T07:11:26.226Z,18.6
2019-05-20T07:21:27.994Z,8.4
2019-05-20T07:31:25.853Z,5.5
2019-05-20T07:41:25.487Z,3.0
2019-05-20T07:51:26.891Z,2.1
2019-05-20T08:01:25.806Z,4.1
2019-05-20T08:11:26.253Z,6.4
2019-05-20T08:21:27.437Z,1.8
2019-05-20T08:31:28.375Z,1.3
2019-05-20T08:41:26.384Z,2.0
2019-05-20T08:51:26.778Z,1.1
2019-05-20T09:01:25.800Z,1.7
2019-05-20T09:11:25.658Z,2.4
2019-05-20T09:21:25.742Z,2.7
2019-05-20T09:31:25.719Z,3.7
2019-05-20T09:41:26.733Z,5.9
2019-05-20T09:51:25.604Z,4.5
2019-05-20T10:01:26.948Z,6.3
2019-05-20T10:11:26.333Z,4.7
2019-05-20T10:21:26.865Z,3.4
2019-05-20T10:31:25.929Z,3.4
2019-05-20T10:41:30.388Z,6.7
2019-05-20T10:51:26.195Z,4.2
2019-05-20T11:01:26.104Z,2.8
2019-05-20T11:11:26.083Z,4.0
2019-05-20T11:21:25.792Z,3.0
2019-05-20T11:31:26.101Z,3.3
2019-05-20T11:41:54.117Z,4.6
2019-05-20T11:51:26.620Z,2.7
2019-05-20T12:01:28.289Z,3.4
2019-05-20T12:11:26.290Z,5.4
2019-05-20T12:21:26.363Z,6.2
2019-05-20T12:31:26.335Z,2.9
2019-05-20T12:41:26.861Z,2.8
2019-05-20T12:51:26.229Z,4.6
2019-05-20T13:01:26.063Z,3.6
2019-05-20T13:11:28.836Z,2.6
2019-05-20T13:21:26.045Z,4.0
2019-05-20T13:31:26.438Z,2.3
2019-05-20T13:41:27.765Z,3.0
2019-05-20T13:51:26.393Z,3.5
2019-05-20T14:01:26.249Z,5.5
2019-05-20T14:11:35.432Z,4.8
2019-05-20T14:21:26.412Z,3.4
2019-05-20T14:31:26.534Z,3.7
2019-05-20T14:41:26.743Z,3.0
2019-05-20T14:51:26.672Z,2.8
2019-05-20T15:01:28.228Z,5.4
2019-05-20T15:11:39.005Z,4.7
2019-05-20T15:21:30.144Z,3.8
2019-05-20T15:31:26.236Z,6.3
2019-05-20T15:41:27.140Z,4.7
2019-05-20T15:51:27.543Z,3.6
2019-05-20T16:01:26.591Z,6.7
2019-05-20T16:11:26.700Z,5.0
2019-05-20T16:21:28.155Z,4.4
2019-05-20T16:31:26.376Z,4.3
2019-05-20T16:41:26.790Z,6.3
2019-05-20T16:51:25.539Z,4.1
2019-05-20T17:01:26.597Z,5.5
2019-05-20T17:11:26.116Z,6.5
2019-05-20T17:21:28.652Z,4.9
2019-05-20T17:31:30.566Z,4.2
2019-05-20T17:41:31.525Z,7.5
2019-05-20T17:51:28.568Z,5.3
2019-05-20T18:01:26.500Z,5.5
2019-05-20T18:11:26.442Z,3.9
2019-05-20T18:21:25.959Z,3.4
2019-05-20T18:31:33.517Z,6.5
2019-05-20T18:41:26.176Z,4.9
2019-05-20T18:51:27.195Z,4.8
2019-05-20T19:01:26.213Z,13.6
2019-05-20T19:11:27.136Z,6.7
2019-05-20T19:21:26.926Z,8.7
2019-05-20T19:31:25.567Z,6.3
2019-05-20T19:41:27.655Z,5.8
2019-05-20T19:51:25.665Z,6.9
2019-05-20T20:01:26.204Z,9.2
2019-05-20T20:11:27.652Z,7.2
2019-05-20T20:21:26.350Z,10.4
2019-05-20T20:31:26.309Z,8.9
2019-05-20T20:41:26.439Z,7.2
2019-05-20T20:51:26.870Z,8.8
2019-05-20T21:01:26.104Z,11.7
2019-05-20T21:11:26.526Z,17.6
2019-05-20T21:21:26.031Z,12.2
2019-05-20T21:31:27.522Z,11.2
2019-05-20T21:41:26.111Z,12.1
2019-05-20T21:51:26.422Z,14.5
2019-05-20T22:01:27.906Z,13.0
2019-05-20T22:11:27.616Z,12.5
2019-05-20T22:21:27.066Z,11.4
2019-05-20T22:31:26.705Z,11.0
2019-05-20T22:41:27.294Z,14.2
2019-05-20T22:51:27.614Z,11.5
2019-05-20T23:01:26.779Z,15.7
2019-05-20T23:11:29.599Z,11.4
2019-05-20T23:22:39.367Z,15.7
2019-05-20T23:31:26.073Z,12.0
2019-05-20T23:41:27.451Z,11.8
2019-05-20T23:51:27.409Z,11.5
